createdAt,value
2019-03-19T00:01:44.986Z,4.87
2019-03-19T00:04:13.858Z,5.60
2019-03-19T00:06:42.551Z,4.33
2019-03-19T00:09:11.254Z,5.50
2019-03-19T00:11:39.958Z,5.67
2019-03-19T00:14:08.656Z,5.17
2019-03-19T00:16:37.408Z,4.50
2019-03-19T00:19:06.112Z,4.90
2019-03-19T00:21:34.836Z,6.00
2019-03-19T00:24:03.557Z,5.03
2019-03-19T00:26:32.290Z,4.43
2019-03-19T00:29:00.920Z,5.40
2019-03-19T00:31:29.620Z,4.40
2019-03-19T00:33:58.386Z,4.90
2019-03-19T00:36:27.024Z,4.60
2019-03-19T00:38:55.742Z,4.80
2019-03-19T00:41:24.415Z,5.40
2019-03-19T00:43:53.051Z,4.50
2019-03-19T00:46:21.726Z,4.10
2019-03-19T00:48:50.436Z,5.20
2019-03-19T00:51:19.176Z,4.90
2019-03-19T00:53:47.909Z,4.90
2019-03-19T00:56:17.461Z,4.83
2019-03-19T00:58:46.133Z,4.43
2019-03-19T01:01:14.903Z,7.03
2019-03-19T01:03:43.538Z,5.70
2019-03-19T01:06:12.212Z,5.47
2019-03-19T01:08:40.940Z,5.67
2019-03-19T01:11:09.624Z,4.33
2019-03-19T01:13:38.329Z,4.97
2019-03-19T01:16:07.223Z,5.40
2019-03-19T01:18:35.898Z,4.83
2019-03-19T01:21:04.684Z,4.80
2019-03-19T01:23:33.403Z,5.17
2019-03-19T01:26:02.200Z,6.10
2019-03-19T01:28:30.966Z,5.13
2019-03-19T01:30:59.831Z,6.07
2019-03-19T01:33:28.458Z,5.00
2019-03-19T01:35:57.160Z,7.50
2019-03-19T01:38:25.928Z,5.63
2019-03-19T01:40:54.625Z,7.00
2019-03-19T01:43:23.275Z,7.00
2019-03-19T01:45:52.035Z,6.73
2019-03-19T01:48:20.681Z,6.73
2019-03-19T01:50:49.262Z,5.87
2019-03-19T01:53:17.881Z,5.23
2019-03-19T01:55:46.653Z,4.97
2019-03-19T01:58:15.383Z,5.90
2019-03-19T02:00:44.105Z,6.10
2019-03-19T02:03:12.896Z,6.23
2019-03-19T02:05:41.604Z,6.23
2019-03-19T02:08:10.354Z,6.87
2019-03-19T02:10:39.066Z,6.93
2019-03-19T02:13:07.685Z,7.57
2019-03-19T02:15:36.325Z,6.23
2019-03-19T02:18:05.173Z,7.13
2019-03-19T02:20:34.666Z,7.50
2019-03-19T02:23:04.731Z,6.97
2019-03-19T02:25:33.545Z,7.00
2019-03-19T02:28:02.147Z,7.10
2019-03-19T02:30:31.019Z,7.13
2019-03-19T02:32:59.584Z,7.60
2019-03-19T02:35:28.332Z,8.80
2019-03-19T02:37:56.919Z,7.93
2019-03-19T02:40:25.685Z,7.17
2019-03-19T02:42:54.344Z,8.07
2019-03-19T02:45:23.111Z,8.23
2019-03-19T02:47:51.700Z,9.87
2019-03-19T02:50:20.474Z,7.10
2019-03-19T02:52:49.138Z,7.83
2019-03-19T02:55:17.885Z,7.73
2019-03-19T02:57:46.517Z,8.90
2019-03-19T03:00:17.369Z,8.07
2019-03-19T03:02:46.201Z,7.90
2019-03-19T03:05:17.067Z,8.37
2019-03-19T03:07:45.848Z,8.47
2019-03-19T03:10:15.186Z,8.40
2019-03-19T03:12:43.958Z,8.60
2019-03-19T03:15:13.701Z,9.17
2019-03-19T03:17:42.491Z,7.97
2019-03-19T03:20:15.937Z,8.80
2019-03-19T03:22:44.660Z,9.63
2019-03-19T03:25:14.473Z,9.90
2019-03-19T03:27:43.130Z,9.53
2019-03-19T03:30:14.835Z,10.53
2019-03-19T03:32:43.650Z,9.97
2019-03-19T03:35:12.816Z,8.30
2019-03-19T03:37:41.585Z,9.20
2019-03-19T03:40:13.166Z,9.73
2019-03-19T03:42:43.254Z,11.10
2019-03-19T03:45:13.528Z,10.83
2019-03-19T03:47:42.298Z,10.43
2019-03-19T03:50:13.813Z,10.80
2019-03-19T03:52:42.635Z,11.23
2019-03-19T03:55:12.948Z,11.77
2019-03-19T03:57:41.648Z,12.67
2019-03-19T04:00:13.165Z,11.73
2019-03-19T04:02:44.661Z,9.40
2019-03-19T04:05:12.801Z,10.67
2019-03-19T04:07:41.549Z,11.27
2019-03-19T04:10:12.603Z,13.83
2019-03-19T04:12:41.465Z,13.50
2019-03-19T04:15:12.448Z,13.33
2019-03-19T04:17:41.232Z,12.77
2019-03-19T04:20:11.914Z,11.50
2019-03-19T04:22:40.765Z,12.00
2019-03-19T04:25:10.846Z,10.93
2019-03-19T04:27:40.623Z,12.07
2019-03-19T04:30:13.318Z,12.17
2019-03-19T04:32:42.095Z,10.67
2019-03-19T04:35:11.107Z,10.60
2019-03-19T04:37:39.763Z,10.97
2019-03-19T04:40:10.682Z,12.27
2019-03-19T04:42:39.542Z,13.87
2019-03-19T04:45:10.615Z,12.10
2019-03-19T04:47:42.261Z,13.33
2019-03-19T04:50:12.746Z,13.23
2019-03-19T04:52:41.543Z,14.67
2019-03-19T04:55:12.166Z,12.40
2019-03-19T04:57:40.885Z,11.53
2019-03-19T05:00:12.720Z,12.57
2019-03-19T05:02:41.463Z,12.23
2019-03-19T05:05:11.533Z,13.73
2019-03-19T05:07:40.362Z,11.70
2019-03-19T05:10:12.273Z,13.23
2019-03-19T05:12:41.099Z,12.43
2019-03-19T05:15:10.673Z,12.30
2019-03-19T05:17:39.437Z,13.60
2019-03-19T05:20:11.599Z,11.30
2019-03-19T05:22:40.326Z,11.90
2019-03-19T05:25:09.959Z,12.60
2019-03-19T05:27:38.766Z,13.20
2019-03-19T05:30:10.776Z,15.80
2019-03-19T05:32:39.437Z,14.87
2019-03-19T05:35:09.505Z,13.57
2019-03-19T05:37:38.368Z,15.20
2019-03-19T05:40:09.799Z,16.13
2019-03-19T05:42:38.547Z,14.63
2019-03-19T05:45:10.231Z,14.97
2019-03-19T05:47:40.511Z,15.10
2019-03-19T05:50:12.581Z,14.90
2019-03-19T05:52:42.785Z,15.97
2019-03-19T05:55:11.783Z,16.80
2019-03-19T05:57:48.718Z,16.10
2019-03-19T06:00:13.733Z,16.80
2019-03-19T06:02:42.506Z,17.10
2019-03-19T06:05:12.286Z,18.10
2019-03-19T06:07:41.121Z,22.13
2019-03-19T06:10:14.079Z,23.87
2019-03-19T06:12:42.809Z,24.27
2019-03-19T06:15:13.241Z,24.70
2019-03-19T06:17:41.970Z,26.37
2019-03-19T06:20:12.644Z,25.40
2019-03-19T06:22:41.433Z,24.07
2019-03-19T06:25:11.624Z,22.67
2019-03-19T06:27:40.359Z,22.20
2019-03-19T06:30:12.050Z,21.13
2019-03-19T06:32:40.815Z,19.37
2019-03-19T06:35:11.041Z,15.60
2019-03-19T06:37:39.774Z,15.60
2019-03-19T06:40:11.952Z,11.73
2019-03-19T06:42:40.730Z,12.50
2019-03-19T06:45:12.419Z,11.90
2019-03-19T06:47:41.141Z,10.87
2019-03-19T06:50:12.713Z,11.00
2019-03-19T06:52:41.398Z,11.10
2019-03-19T06:55:12.166Z,16.13
2019-03-19T06:57:40.821Z,12.23
2019-03-19T07:00:12.372Z,10.50
2019-03-19T07:02:41.069Z,11.40
2019-03-19T07:05:10.302Z,11.27
2019-03-19T07:07:38.995Z,11.13
2019-03-19T07:10:10.621Z,11.83
2019-03-19T07:12:39.262Z,11.83
2019-03-19T07:15:11.122Z,11.40
2019-03-19T07:17:39.811Z,10.90
2019-03-19T07:20:11.340Z,11.13
2019-03-19T07:22:40.124Z,12.60
2019-03-19T07:25:09.845Z,10.67
2019-03-19T07:27:38.702Z,11.17
2019-03-19T07:30:10.482Z,10.70
2019-03-19T07:32:39.214Z,11.20
2019-03-19T07:35:08.195Z,10.73
2019-03-19T07:37:36.900Z,11.67
2019-03-19T07:40:08.420Z,12.87
2019-03-19T07:42:37.166Z,10.07
2019-03-19T07:45:09.268Z,10.80
2019-03-19T07:47:37.948Z,9.80
2019-03-19T07:50:09.769Z,11.40
2019-03-19T07:52:38.462Z,10.23
2019-03-19T07:55:07.357Z,12.70
2019-03-19T07:57:36.148Z,11.87
2019-03-19T08:00:07.701Z,10.20
2019-03-19T08:02:36.390Z,11.53
2019-03-19T08:05:07.835Z,10.70
2019-03-19T08:07:36.882Z,10.83
2019-03-19T08:10:08.327Z,11.10
2019-03-19T08:12:36.989Z,11.60
2019-03-19T08:15:08.914Z,9.43
2019-03-19T08:17:37.597Z,9.73
2019-03-19T08:20:09.440Z,10.60
2019-03-19T08:22:38.130Z,9.53
2019-03-19T08:25:09.274Z,9.20
2019-03-19T08:27:38.286Z,9.40
2019-03-19T08:30:09.976Z,9.07
2019-03-19T08:32:38.686Z,9.47
2019-03-19T08:35:07.754Z,10.10
2019-03-19T08:37:36.471Z,8.40
2019-03-19T08:40:08.031Z,9.37
2019-03-19T08:42:36.739Z,8.30
2019-03-19T08:45:08.482Z,9.33
2019-03-19T08:47:38.471Z,6.77
2019-03-19T08:50:10.226Z,8.10
2019-03-19T08:52:38.829Z,7.73
2019-03-19T08:55:07.549Z,7.40
2019-03-19T08:57:36.191Z,7.83
2019-03-19T09:00:07.689Z,5.80
2019-03-19T09:02:36.382Z,7.60
2019-03-19T09:05:07.712Z,7.83
2019-03-19T09:07:36.429Z,7.27
2019-03-19T09:10:08.051Z,7.20
2019-03-19T09:12:36.742Z,7.70
2019-03-19T09:15:08.245Z,7.40
2019-03-19T09:17:36.963Z,7.50
2019-03-19T09:20:08.476Z,6.33
2019-03-19T09:22:37.235Z,7.13
2019-03-19T09:25:07.545Z,6.30
2019-03-19T09:27:36.289Z,4.73
2019-03-19T09:30:07.977Z,5.43
2019-03-19T09:32:36.632Z,5.90
2019-03-19T09:35:06.399Z,4.13
2019-03-19T09:37:46.275Z,5.00
2019-03-19T09:40:16.258Z,3.40
2019-03-19T09:42:44.959Z,2.70
2019-03-19T09:45:15.915Z,2.93
2019-03-19T09:47:44.647Z,4.10
2019-03-19T09:50:16.230Z,2.80
2019-03-19T09:52:45.137Z,3.90
2019-03-19T09:55:14.492Z,3.47
2019-03-19T09:57:43.229Z,3.13
2019-03-19T10:00:14.742Z,2.27
2019-03-19T10:02:43.427Z,2.43
2019-03-19T10:05:12.257Z,2.67
2019-03-19T10:07:40.983Z,3.03
2019-03-19T10:10:12.454Z,2.80
2019-03-19T10:12:41.055Z,2.80
2019-03-19T10:15:10.247Z,3.60
2019-03-19T10:17:38.905Z,3.17
2019-03-19T10:20:10.435Z,3.40
2019-03-19T10:22:39.142Z,2.33
2019-03-19T10:25:10.886Z,2.70
2019-03-19T10:27:39.532Z,2.70
2019-03-19T10:30:11.077Z,1.87
2019-03-19T10:32:39.769Z,3.10
2019-03-19T10:35:09.162Z,3.40
2019-03-19T10:37:37.893Z,2.67
2019-03-19T10:40:08.668Z,2.20
2019-03-19T10:42:37.285Z,2.57
2019-03-19T10:45:08.822Z,2.20
2019-03-19T10:47:37.534Z,2.87
2019-03-19T10:50:09.102Z,2.10
2019-03-19T10:52:37.748Z,2.43
2019-03-19T10:55:06.994Z,3.47
2019-03-19T10:57:35.753Z,3.33
2019-03-19T11:00:08.700Z,2.37
2019-03-19T11:02:37.431Z,2.77
2019-03-19T11:05:09.348Z,2.53
2019-03-19T11:07:38.018Z,3.23
2019-03-19T11:10:10.254Z,3.70
2019-03-19T11:12:39.188Z,3.07
2019-03-19T11:15:10.680Z,3.70
2019-03-19T11:17:39.407Z,2.93
2019-03-19T11:20:10.901Z,2.87
2019-03-19T11:22:39.569Z,4.97
2019-03-19T11:25:11.468Z,3.20
2019-03-19T11:27:43.118Z,2.50
2019-03-19T11:30:15.032Z,3.03
2019-03-19T11:32:43.777Z,2.70
2019-03-19T11:35:14.104Z,2.87
2019-03-19T11:37:42.904Z,2.60
2019-03-19T11:40:13.817Z,3.10
2019-03-19T11:45:25.994Z,2.33
2019-03-19T11:47:55.335Z,1.80
2019-03-19T11:50:58.598Z,2.13
2019-03-19T11:53:27.958Z,2.10
2019-03-19T11:55:57.311Z,2.90
2019-03-19T11:58:26.617Z,2.50
2019-03-19T12:01:38.415Z,2.97
2019-03-19T12:04:07.918Z,2.83
2019-03-19T12:06:37.125Z,2.77
2019-03-19T12:15:47.199Z,1.80
2019-03-19T12:18:40.106Z,2.00
2019-03-19T12:24:02.398Z,1.80
2019-03-19T12:26:51.173Z,4.40
2019-03-19T12:32:08.335Z,2.90
2019-03-19T12:38:03.325Z,2.53
2019-03-19T12:40:36.853Z,4.13
2019-03-19T12:43:02.577Z,8.07
2019-03-19T12:45:31.377Z,3.30
2019-03-19T12:48:00.111Z,2.20
2019-03-19T12:50:28.826Z,2.27
2019-03-19T12:52:57.528Z,2.10
2019-03-19T12:55:26.259Z,2.20
2019-03-19T12:57:55.137Z,2.17
2019-03-19T13:02:56.273Z,2.30
2019-03-19T13:05:25.082Z,2.60
2019-03-19T13:06:07.814Z,1.80
2019-03-19T13:07:53.855Z,1.83
2019-03-19T13:10:24.439Z,1.50
2019-03-19T13:12:53.157Z,3.47
2019-03-19T13:15:22.098Z,1.80
2019-03-19T13:17:50.857Z,2.23
2019-03-19T13:20:20.422Z,2.27
2019-03-19T13:22:49.123Z,2.33
2019-03-19T13:25:19.972Z,3.07
2019-03-19T13:27:48.695Z,2.23
2019-03-19T13:30:20.297Z,2.30
2019-03-19T13:32:49.023Z,2.40
2019-03-19T13:35:17.713Z,2.30
2019-03-19T13:37:46.443Z,2.60
2019-03-19T13:40:17.124Z,2.27
2019-03-19T13:45:25.279Z,2.23
2019-03-19T13:50:52.252Z,2.50
2019-03-19T13:53:28.705Z,2.80
2019-03-19T13:58:34.078Z,2.57
2019-03-19T14:01:05.006Z,1.83
2019-03-19T14:03:34.412Z,1.83
2019-03-19T14:06:03.713Z,2.53
2019-03-19T14:17:23.369Z,2.70
2019-03-19T14:19:52.065Z,2.10
2019-03-19T14:22:20.813Z,2.30
2019-03-19T14:24:49.468Z,2.63
2019-03-19T14:27:18.237Z,1.90
2019-03-19T14:29:46.963Z,2.83
2019-03-19T14:32:15.773Z,2.30
2019-03-19T14:34:44.498Z,2.70
2019-03-19T14:37:13.205Z,2.30
2019-03-19T14:39:41.882Z,2.73
2019-03-19T14:42:10.632Z,2.57
2019-03-19T14:44:39.331Z,2.50
2019-03-19T14:47:08.066Z,2.40
2019-03-19T14:49:46.293Z,2.90
2019-03-19T14:55:20.625Z,2.30
2019-03-19T14:57:51.591Z,2.73
2019-03-19T15:00:23.628Z,2.67
2019-03-19T15:02:53.161Z,2.23
2019-03-19T15:08:14.176Z,2.50
2019-03-19T15:10:42.961Z,3.27
2019-03-19T15:13:11.682Z,2.13
2019-03-19T15:15:41.761Z,2.83
2019-03-19T15:18:10.567Z,2.83
2019-03-19T15:20:39.298Z,2.60
2019-03-19T15:23:08.069Z,3.60
2019-03-19T15:25:36.907Z,2.97
2019-03-19T15:28:05.866Z,3.37
2019-03-19T15:30:34.647Z,2.80
2019-03-19T15:33:03.367Z,3.10
2019-03-19T15:35:32.207Z,2.93
2019-03-19T15:38:00.993Z,2.47
2019-03-19T15:40:29.827Z,3.87
2019-03-19T15:43:00.845Z,2.97
2019-03-19T15:45:30.864Z,2.93
2019-03-19T15:48:00.668Z,2.40
2019-03-19T15:50:29.401Z,3.47
2019-03-19T15:52:58.174Z,3.00
2019-03-19T15:55:26.930Z,3.33
2019-03-19T15:57:55.627Z,3.10
2019-03-19T16:00:24.432Z,3.00
2019-03-19T16:02:53.224Z,2.90
2019-03-19T16:05:22.048Z,2.83
2019-03-19T16:07:50.802Z,2.43
2019-03-19T16:10:19.728Z,2.30
2019-03-19T16:12:48.505Z,3.00
2019-03-19T16:15:19.430Z,3.50
2019-03-19T16:17:48.312Z,3.20
2019-03-19T16:20:18.140Z,3.57
2019-03-19T16:22:46.917Z,3.53
2019-03-19T16:25:15.829Z,2.93
2019-03-19T16:27:44.460Z,2.60
2019-03-19T16:30:15.656Z,3.10
2019-03-19T16:32:44.485Z,2.40
2019-03-19T16:35:13.831Z,2.53
2019-03-19T16:37:42.640Z,3.33
2019-03-19T16:40:14.109Z,2.67
2019-03-19T16:42:42.867Z,3.77
2019-03-19T16:45:12.440Z,3.73
2019-03-19T16:47:41.164Z,3.30
2019-03-19T16:50:12.780Z,3.70
2019-03-19T16:52:41.534Z,3.17
2019-03-19T16:55:13.164Z,3.60
2019-03-19T16:57:41.884Z,2.90
2019-03-19T17:00:13.701Z,3.50
2019-03-19T17:02:42.327Z,3.03
2019-03-19T17:05:12.108Z,3.10
2019-03-19T17:07:40.922Z,2.90
2019-03-19T17:10:12.454Z,2.97
2019-03-19T17:12:42.072Z,3.53
2019-03-19T17:15:13.583Z,3.60
2019-03-19T17:17:42.192Z,3.17
2019-03-19T17:20:13.134Z,3.90
2019-03-19T17:22:41.895Z,3.10
2019-03-19T17:25:13.193Z,3.50
2019-03-19T17:27:41.933Z,4.10
2019-03-19T17:30:13.604Z,4.63
2019-03-19T17:32:42.370Z,3.77
2019-03-19T17:35:11.097Z,4.03
2019-03-19T17:37:39.877Z,3.87
2019-03-19T17:40:11.016Z,4.90
2019-03-19T17:42:39.741Z,3.90
2019-03-19T17:45:10.388Z,3.63
2019-03-19T17:47:39.100Z,4.60
2019-03-19T17:50:10.641Z,4.30
2019-03-19T17:52:39.350Z,4.50
2019-03-19T17:55:10.938Z,4.03
2019-03-19T17:57:39.729Z,4.80
2019-03-19T18:00:11.385Z,4.70
2019-03-19T18:02:40.193Z,5.93
2019-03-19T18:05:10.241Z,5.50
2019-03-19T18:07:38.991Z,5.87
2019-03-19T18:10:10.103Z,5.73
2019-03-19T18:12:38.859Z,5.70
2019-03-19T18:15:10.198Z,5.57
2019-03-19T18:17:39.016Z,7.60
2019-03-19T18:20:10.533Z,12.60
2019-03-19T18:22:39.258Z,9.80
2019-03-19T18:25:10.477Z,6.90
2019-03-19T18:27:39.217Z,8.33
2019-03-19T18:30:11.145Z,8.20
2019-03-19T18:32:39.826Z,8.90
2019-03-19T18:35:08.589Z,8.40
2019-03-19T18:37:37.391Z,7.00
2019-03-19T18:40:08.842Z,7.33
2019-03-19T18:42:37.666Z,13.00
2019-03-19T18:45:08.890Z,12.20
2019-03-19T18:47:37.589Z,10.30
2019-03-19T18:50:09.433Z,12.93
2019-03-19T18:52:38.254Z,12.90
2019-03-19T18:55:08.311Z,8.63
2019-03-19T18:57:37.096Z,10.87
2019-03-19T19:00:08.855Z,13.97
2019-03-19T19:02:48.736Z,14.73
2019-03-19T19:05:11.135Z,13.53
2019-03-19T19:07:39.986Z,10.67
2019-03-19T19:10:11.324Z,13.07
2019-03-19T19:12:40.149Z,8.53
2019-03-19T19:15:11.828Z,7.90
2019-03-19T19:17:40.469Z,6.47
2019-03-19T19:20:12.004Z,7.87
2019-03-19T19:22:41.802Z,10.03
2019-03-19T19:25:12.952Z,7.20
2019-03-19T19:27:41.807Z,6.93
2019-03-19T19:30:13.604Z,7.70
2019-03-19T19:32:42.370Z,6.90
2019-03-19T19:35:11.422Z,7.40
2019-03-19T19:37:40.066Z,8.90
2019-03-19T19:40:11.821Z,8.20
2019-03-19T19:42:40.647Z,9.40
2019-03-19T19:45:11.855Z,10.13
2019-03-19T19:47:40.646Z,9.83
2019-03-19T19:50:12.275Z,10.40
2019-03-19T19:52:40.955Z,10.00
2019-03-19T19:55:11.458Z,10.53
2019-03-19T19:57:40.528Z,11.37
2019-03-19T20:00:12.136Z,11.90
2019-03-19T20:02:40.907Z,10.10
2019-03-19T20:05:09.807Z,9.33
2019-03-19T20:07:38.532Z,9.43
2019-03-19T20:10:10.047Z,9.30
2019-03-19T20:12:38.845Z,12.10
2019-03-19T20:15:09.893Z,11.33
2019-03-19T20:17:38.634Z,11.10
2019-03-19T20:20:10.502Z,10.37
2019-03-19T20:22:39.239Z,10.70
2019-03-19T20:25:08.383Z,10.30
2019-03-19T20:27:37.255Z,15.40
2019-03-19T20:30:08.868Z,13.83
2019-03-19T20:32:37.545Z,13.80
2019-03-19T20:35:09.159Z,13.03
2019-03-19T20:37:37.896Z,12.70
2019-03-19T20:40:09.820Z,12.60
2019-03-19T20:42:38.571Z,12.17
2019-03-19T20:45:10.387Z,9.90
2019-03-19T20:47:39.228Z,10.53
2019-03-19T20:50:11.007Z,10.57
2019-03-19T20:52:39.801Z,20.63
2019-03-19T20:55:08.575Z,12.47
2019-03-19T20:57:37.318Z,11.10
2019-03-19T21:00:08.874Z,10.20
2019-03-19T21:02:37.663Z,9.53
2019-03-19T21:05:06.624Z,10.00
2019-03-19T21:07:35.477Z,10.70
2019-03-19T21:10:07.316Z,9.63
2019-03-19T21:12:36.072Z,11.07
2019-03-19T21:15:08.004Z,11.23
2019-03-19T21:17:36.821Z,10.50
2019-03-19T21:20:06.918Z,9.70
2019-03-19T21:22:35.616Z,9.97
2019-03-19T21:25:05.513Z,11.10
2019-03-19T21:27:34.259Z,10.10
2019-03-19T21:30:03.935Z,10.87
2019-03-19T21:32:32.831Z,10.03
2019-03-19T21:35:01.618Z,10.17
2019-03-19T21:37:30.360Z,10.67
2019-03-19T21:39:59.211Z,10.13
2019-03-19T21:42:28.039Z,10.70
2019-03-19T21:44:56.823Z,9.90
2019-03-19T21:47:25.669Z,11.27
2019-03-19T21:49:54.372Z,9.73
2019-03-19T21:52:23.052Z,12.00
2019-03-19T21:54:51.731Z,11.17
2019-03-19T21:57:20.403Z,11.37
2019-03-19T21:59:49.157Z,12.40
2019-03-19T22:02:17.949Z,12.10
2019-03-19T22:04:46.683Z,11.37
2019-03-19T22:07:15.359Z,11.63
2019-03-19T22:09:44.102Z,11.87
2019-03-19T22:12:12.878Z,12.77
2019-03-19T22:14:41.639Z,11.17
2019-03-19T22:17:10.347Z,13.10
2019-03-19T22:19:40.210Z,11.30
2019-03-19T22:22:09.068Z,12.17
2019-03-19T22:24:37.721Z,11.40
2019-03-19T22:27:06.500Z,11.90
2019-03-19T22:29:35.267Z,12.17
2019-03-19T22:32:03.977Z,12.03
2019-03-19T22:34:32.738Z,11.47
2019-03-19T22:37:01.476Z,10.40
2019-03-19T22:39:30.212Z,11.00
2019-03-19T22:41:58.929Z,11.10
2019-03-19T22:44:27.606Z,10.40
2019-03-19T22:46:56.355Z,11.30
2019-03-19T22:49:24.973Z,12.50
2019-03-19T22:51:53.545Z,11.87
2019-03-19T22:54:22.315Z,12.10
2019-03-19T22:56:50.967Z,11.00
2019-03-19T22:59:19.623Z,13.07
2019-03-19T23:01:48.370Z,10.87
2019-03-19T23:04:26.901Z,11.33
2019-03-19T23:06:47.473Z,11.90
2019-03-19T23:09:16.446Z,12.27
2019-03-19T23:11:45.087Z,12.13
2019-03-19T23:14:13.793Z,11.00
2019-03-19T23:16:42.557Z,12.70
2019-03-19T23:19:11.266Z,12.30
2019-03-19T23:21:40.040Z,11.43
2019-03-19T23:24:08.786Z,12.00
2019-03-19T23:26:37.446Z,10.83
2019-03-19T23:29:06.151Z,12.80
2019-03-19T23:31:34.953Z,11.50
2019-03-19T23:34:03.617Z,12.03
2019-03-19T23:36:32.365Z,11.80
2019-03-19T23:39:01.140Z,13.10
2019-03-19T23:41:29.842Z,12.10
2019-03-19T23:43:58.453Z,13.27
2019-03-19T23:46:27.168Z,12.03
2019-03-19T23:48:55.844Z,11.70
2019-03-19T23:51:24.496Z,13.40
2019-03-19T23:53:53.161Z,13.20
2019-03-19T23:56:21.868Z,11.73
2019-03-19T23:58:50.446Z,12.43
